createdAt,value
2023-02-08T00:00:01.392Z,103913.22
2023-02-08T00:02:27.720Z,103908.91
2023-02-08T00:04:54.052Z,103908.91
2023-02-08T00:07:20.416Z,103911.50
2023-02-08T00:09:46.766Z,103914.06
2023-02-08T00:12:13.104Z,103905.50
2023-02-08T00:14:39.445Z,103914.94
2023-02-08T00:17:05.880Z,103904.63
2023-02-08T00:19:32.285Z,103911.50
2023-02-08T00:21:58.722Z,103904.59
2023-02-08T00:24:25.041Z,103901.16
2023-02-08T00:26:51.413Z,103901.19
2023-02-08T00:29:17.945Z,103895.16
2023-02-08T00:31:44.381Z,103895.19
2023-02-08T00:34:10.812Z,103894.31
2023-02-08T00:36:37.190Z,103896.03
2023-02-08T00:39:03.946Z,103902.06
2023-02-08T00:41:30.358Z,103902.03
2023-02-08T00:43:56.823Z,103897.75
2023-02-08T00:46:23.378Z,103893.44
2023-02-08T00:48:49.817Z,103886.59
2023-02-08T00:51:16.324Z,103890.00
2023-02-08T00:53:45.450Z,103891.75
2023-02-08T00:56:13.301Z,103888.28
2023-02-08T00:58:40.433Z,103889.13
2023-02-08T01:01:07.969Z,103885.72
2023-02-08T01:03:36.042Z,103881.44
2023-02-08T01:06:04.689Z,103881.44
2023-02-08T01:08:31.383Z,103880.56
2023-02-08T01:11:25.392Z,103881.41
2023-02-08T01:13:54.327Z,103871.94
2023-02-08T01:16:23.767Z,103876.25
2023-02-08T01:18:52.539Z,103873.66
2023-02-08T01:21:21.969Z,103876.25
2023-02-08T01:23:48.796Z,103877.97
2023-02-08T01:26:16.760Z,103886.56
2023-02-08T01:28:43.936Z,103872.81
2023-02-08T01:31:13.667Z,103877.97
2023-02-08T01:33:40.510Z,103874.53
2023-02-08T01:36:07.645Z,103871.97
2023-02-08T01:38:35.275Z,103872.81
2023-02-08T01:41:03.154Z,103874.53
2023-02-08T01:43:35.732Z,103874.56
2023-02-08T01:46:02.143Z,103876.25
2023-02-08T01:48:31.463Z,103882.25
2023-02-08T01:51:09.242Z,103870.25
2023-02-08T01:53:36.075Z,103879.69
2023-02-08T01:56:06.738Z,103872.81
2023-02-08T01:58:38.772Z,103869.38
2023-02-08T02:01:05.766Z,103865.91
2023-02-08T02:03:32.215Z,103863.34
2023-02-08T02:06:06.044Z,103863.38
2023-02-08T02:08:32.509Z,103868.53
2023-02-08T02:10:59.055Z,103865.09
2023-02-08T02:13:27.395Z,103865.09
2023-02-08T02:15:54.514Z,103864.22
2023-02-08T02:18:26.920Z,103857.31
2023-02-08T02:21:08.577Z,103865.94
2023-02-08T02:24:10.982Z,103865.06
2023-02-08T02:27:15.018Z,103859.06
2023-02-08T02:30:27.141Z,103860.78
2023-02-08T02:33:17.129Z,103863.34
2023-02-08T02:36:02.734Z,103862.50
2023-02-08T02:38:47.481Z,103860.78
2023-02-08T02:41:49.241Z,103851.34
2023-02-08T02:44:28.311Z,103853.03
2023-02-08T02:47:04.668Z,103845.31
2023-02-08T02:49:39.754Z,103847.88
2023-02-08T02:52:11.895Z,103840.13
2023-02-08T02:54:47.871Z,103847.88
2023-02-08T02:57:20.280Z,103853.06
2023-02-08T02:59:46.980Z,103838.44
2023-02-08T03:02:14.086Z,103850.47
2023-02-08T03:04:40.659Z,103848.72
2023-02-08T03:07:20.417Z,103847.03
2023-02-08T03:10:22.700Z,103847.91
2023-02-08T03:13:00.974Z,103847.00
2023-02-08T03:15:36.459Z,103847.03
2023-02-08T03:18:24.613Z,103842.75
2023-02-08T03:21:12.820Z,103845.31
2023-02-08T03:24:08.589Z,103837.56
2023-02-08T03:26:42.674Z,103843.56
2023-02-08T03:29:25.317Z,103845.31
2023-02-08T03:32:04.126Z,103836.72
2023-02-08T03:34:44.688Z,103839.28
2023-02-08T03:37:20.290Z,103839.28
2023-02-08T03:39:50.325Z,103836.72
2023-02-08T03:42:23.894Z,103839.28
2023-02-08T03:44:55.470Z,103839.25
2023-02-08T03:47:29.033Z,103834.09
2023-02-08T03:50:00.155Z,103849.56
2023-02-08T03:52:28.409Z,103840.97
2023-02-08T03:55:00.807Z,103840.97
2023-02-08T03:57:33.079Z,103841.84
2023-02-08T04:00:08.184Z,103842.69
2023-02-08T04:02:39.063Z,103842.69
2023-02-08T04:05:06.098Z,103833.22
2023-02-08T04:07:32.766Z,103838.38
2023-02-08T04:09:59.165Z,103838.38
2023-02-08T04:12:25.583Z,103839.25
2023-02-08T04:14:52.018Z,103836.66
2023-02-08T04:17:18.423Z,103846.13
2023-02-08T04:19:44.776Z,103846.13
2023-02-08T04:22:11.161Z,103847.00
2023-02-08T04:24:37.615Z,103851.28
2023-02-08T04:27:05.905Z,103848.69
2023-02-08T04:29:32.717Z,103857.28
2023-02-08T04:32:00.156Z,103858.13
2023-02-08T04:34:27.297Z,103867.59
2023-02-08T04:36:53.755Z,103867.56
2023-02-08T04:39:20.159Z,103859.84
2023-02-08T04:41:46.558Z,103862.41
2023-02-08T04:44:12.940Z,103859.84
2023-02-08T04:46:39.281Z,103850.41
2023-02-08T04:49:05.665Z,103856.41
2023-02-08T04:51:32.230Z,103852.97
2023-02-08T04:53:58.650Z,103847.81
2023-02-08T04:56:25.084Z,103847.84
2023-02-08T04:58:51.475Z,103845.25
2023-02-08T05:01:17.981Z,103843.53
2023-02-08T05:03:44.381Z,103844.38
2023-02-08T05:06:10.762Z,103840.97
2023-02-08T05:08:37.295Z,103840.97
2023-02-08T05:11:03.915Z,103834.94
2023-02-08T05:13:30.529Z,103834.09
2023-02-08T05:15:57.019Z,103836.66
2023-02-08T05:18:23.453Z,103843.53
2023-02-08T05:20:58.270Z,103840.09
2023-02-08T05:23:25.517Z,103838.38
2023-02-08T05:25:51.992Z,103836.63
2023-02-08T05:28:19.290Z,103835.78
2023-02-08T05:30:47.009Z,103838.34
2023-02-08T05:33:13.617Z,103831.44
2023-02-08T05:35:40.098Z,103838.31
2023-02-08T05:38:06.524Z,103831.44
2023-02-08T05:40:33.461Z,103822.03
2023-02-08T05:42:59.864Z,103821.16
2023-02-08T05:45:26.207Z,103815.97
2023-02-08T05:47:52.594Z,103812.53
2023-02-08T05:50:19.064Z,103816.84
2023-02-08T05:52:45.448Z,103812.53
2023-02-08T05:55:11.865Z,103816.00
2023-02-08T05:57:38.319Z,103819.41
2023-02-08T06:00:06.000Z,103820.28
2023-02-08T06:02:32.852Z,103823.72
2023-02-08T06:04:59.504Z,103828.84
2023-02-08T06:07:25.905Z,103834.00
2023-02-08T06:09:52.381Z,103829.69
2023-02-08T06:12:19.017Z,103826.25
2023-02-08T06:14:45.656Z,103827.94
2023-02-08T06:17:12.222Z,103829.66
2023-02-08T06:19:38.706Z,103821.88
2023-02-08T06:22:05.107Z,103826.16
2023-02-08T06:24:34.768Z,103816.72
2023-02-08T06:27:04.450Z,103808.97
2023-02-08T06:29:31.239Z,103817.56
2023-02-08T06:31:57.707Z,103815.81
2023-02-08T06:34:24.534Z,103814.94
2023-02-08T06:36:52.948Z,103822.69
2023-02-08T06:39:19.288Z,103820.09
2023-02-08T06:41:45.872Z,103819.22
2023-02-08T06:44:12.275Z,103827.75
2023-02-08T06:46:38.792Z,103814.91
2023-02-08T06:49:05.682Z,103821.75
2023-02-08T06:51:32.418Z,103820.03
2023-02-08T06:53:58.763Z,103823.44
2023-02-08T06:56:25.479Z,103820.84
2023-02-08T06:58:52.012Z,103817.41
2023-02-08T07:01:18.380Z,103819.16
2023-02-08T07:03:45.235Z,103824.28
2023-02-08T07:06:13.733Z,103822.59
2023-02-08T07:08:40.232Z,103825.16
2023-02-08T07:11:11.574Z,103826.88
2023-02-08T07:13:38.847Z,103818.28
2023-02-08T07:16:07.391Z,103814.84
2023-02-08T07:18:34.481Z,103814.88
2023-02-08T07:21:01.172Z,103814.88
2023-02-08T07:23:27.965Z,103819.16
2023-02-08T07:26:06.952Z,103810.59
2023-02-08T07:28:33.351Z,103809.72
2023-02-08T07:30:59.953Z,103805.44
2023-02-08T07:33:26.525Z,103807.13
2023-02-08T07:35:53.053Z,103801.16
2023-02-08T07:38:20.833Z,103797.72
2023-02-08T07:40:47.732Z,103790.88
2023-02-08T07:43:14.163Z,103794.34
2023-02-08T07:45:40.711Z,103793.50
2023-02-08T07:48:07.115Z,103790.06
2023-02-08T07:50:33.870Z,103798.66
2023-02-08T07:53:00.259Z,103804.66
2023-02-08T07:55:27.938Z,103807.25
2023-02-08T07:57:55.802Z,103808.97
2023-02-08T08:00:22.234Z,103806.41
2023-02-08T08:02:50.874Z,103808.13
2023-02-08T08:05:17.194Z,103810.72
2023-02-08T08:07:43.852Z,103809.00
2023-02-08T08:10:10.312Z,103807.28
2023-02-08T08:12:36.714Z,103803.88
2023-02-08T08:15:03.301Z,103811.63
2023-02-08T08:17:30.090Z,103811.66
2023-02-08T08:19:56.684Z,103800.53
2023-02-08T08:22:23.096Z,103804.84
2023-02-08T08:24:50.075Z,103797.09
2023-02-08T08:27:16.427Z,103803.13
2023-02-08T08:29:42.822Z,103800.56
2023-02-08T08:32:11.770Z,103806.59
2023-02-08T08:34:38.245Z,103804.03
2023-02-08T08:37:04.746Z,103798.00
2023-02-08T08:39:32.133Z,103796.31
2023-02-08T08:42:01.141Z,103794.59
2023-02-08T08:44:27.571Z,103785.16
2023-02-08T08:46:58.238Z,103792.03
2023-02-08T08:49:26.345Z,103790.31
2023-02-08T08:51:53.716Z,103788.56
2023-02-08T08:54:21.613Z,103782.59
2023-02-08T08:56:48.114Z,103785.16
2023-02-08T08:59:14.845Z,103781.72
2023-02-08T09:01:42.627Z,103778.28
2023-02-08T09:04:10.765Z,103774.81
2023-02-08T09:06:37.998Z,103775.69
2023-02-08T09:09:05.271Z,103776.53
2023-02-08T09:11:33.251Z,103783.41
2023-02-08T09:14:04.390Z,103781.69
2023-02-08T09:16:32.610Z,103788.53
2023-02-08T09:19:06.938Z,103773.88
2023-02-08T09:21:34.172Z,103773.00
2023-02-08T09:24:04.270Z,103774.69
2023-02-08T09:26:30.726Z,103778.09
2023-02-08T09:28:57.156Z,103772.06
2023-02-08T09:31:26.501Z,103765.97
2023-02-08T09:33:55.509Z,103773.66
2023-02-08T09:36:23.575Z,103777.06
2023-02-08T09:38:51.590Z,103775.31
2023-02-08T09:41:56.534Z,103791.59
2023-02-08T09:44:44.046Z,103791.53
2023-02-08T09:47:23.992Z,103794.94
2023-02-08T09:50:03.383Z,103802.63
2023-02-08T09:52:39.474Z,103797.47
2023-02-08T09:55:24.606Z,103793.09
2023-02-08T09:57:53.924Z,103801.69
2023-02-08T10:00:30.661Z,103794.72
2023-02-08T10:02:59.779Z,103805.91
2023-02-08T10:05:29.715Z,103801.53
2023-02-08T10:07:58.387Z,103805.84
2023-02-08T10:10:44.469Z,103802.34
2023-02-08T10:13:40.828Z,103804.03
2023-02-08T10:16:29.667Z,103799.72
2023-02-08T10:19:03.607Z,103809.16
2023-02-08T10:21:45.327Z,103809.94
2023-02-08T10:24:31.270Z,103809.84
2023-02-08T10:27:06.142Z,103812.31
2023-02-08T10:29:42.632Z,103811.47
2023-02-08T10:32:39.809Z,103816.50
2023-02-08T10:35:16.982Z,103807.81
2023-02-08T10:37:47.128Z,103807.72
2023-02-08T10:40:39.723Z,103803.31
2023-02-08T10:43:26.159Z,103804.94
2023-02-08T10:46:07.857Z,103806.50
2023-02-08T10:49:16.342Z,103814.97
2023-02-08T10:51:46.019Z,103798.44
2023-02-08T10:54:18.418Z,103794.00
2023-02-08T10:56:57.716Z,103799.91
2023-02-08T10:59:29.985Z,103797.09
2023-02-08T11:01:56.896Z,103791.69
2023-02-08T11:04:32.256Z,103788.91
2023-02-08T11:07:04.192Z,103780.97
2023-02-08T11:09:34.848Z,103766.91
2023-02-08T11:12:12.808Z,103767.59
2023-02-08T11:14:47.690Z,103770.63
2023-02-08T11:17:44.848Z,103773.78
2023-02-08T11:20:29.390Z,103771.63
2023-02-08T11:22:56.037Z,103761.88
2023-02-08T11:25:42.238Z,103759.78
2023-02-08T11:28:32.626Z,103755.91
2023-02-08T11:31:16.477Z,103747.88
2023-02-08T11:34:01.347Z,103754.38
2023-02-08T11:36:35.532Z,103752.31
2023-02-08T11:39:15.317Z,103747.69
2023-02-08T11:41:47.318Z,103749.91
2023-02-08T11:44:31.400Z,103747.00
2023-02-08T11:47:04.651Z,103754.47
2023-02-08T11:49:40.693Z,103747.16
2023-02-08T11:52:25.426Z,103742.47
2023-02-08T11:54:52.914Z,103739.72
2023-02-08T11:57:24.751Z,103735.00
2023-02-08T12:00:12.731Z,103734.81
2023-02-08T12:02:40.815Z,103730.94
2023-02-08T12:05:14.876Z,103727.78
2023-02-08T12:08:11.266Z,103724.72
2023-02-08T12:10:55.636Z,103714.75
2023-02-08T12:13:37.255Z,103712.63
2023-02-08T12:16:25.593Z,103714.84
2023-02-08T12:19:34.064Z,103711.03
2023-02-08T12:22:10.817Z,103703.56
2023-02-08T12:24:50.372Z,103700.56
2023-02-08T12:27:32.282Z,103691.22
2023-02-08T12:30:22.954Z,103683.91
2023-02-08T12:32:58.144Z,103683.69
2023-02-08T12:36:02.679Z,103674.81
2023-02-08T12:39:26.470Z,103665.88
2023-02-08T12:42:23.647Z,103658.75
2023-02-08T12:45:19.423Z,103642.91
2023-02-08T12:48:04.522Z,103651.91
2023-02-08T12:50:56.250Z,103649.78
2023-02-08T12:53:30.929Z,103642.53
2023-02-08T12:56:06.114Z,103645.69
2023-02-08T12:58:44.051Z,103637.63
2023-02-08T13:01:16.271Z,103623.47
2023-02-08T13:04:00.402Z,103616.00
2023-02-08T13:06:33.167Z,103614.84
2023-02-08T13:09:35.498Z,103620.03
2023-02-08T13:12:08.455Z,103608.44
2023-02-08T13:14:43.515Z,103615.91
2023-02-08T13:17:27.056Z,103617.38
2023-02-08T13:20:01.169Z,103613.03
2023-02-08T13:22:31.779Z,103609.22
2023-02-08T13:25:07.121Z,103609.56
2023-02-08T13:27:34.300Z,103595.53
2023-02-08T13:30:01.454Z,103599.38
2023-02-08T13:32:36.890Z,103590.69
2023-02-08T13:35:14.881Z,103596.41
2023-02-08T13:37:42.106Z,103591.97
2023-02-08T13:40:21.310Z,103595.50
2023-02-08T13:42:52.406Z,103582.53
2023-02-08T13:45:42.395Z,103579.03
2023-02-08T13:48:12.746Z,103583.75
2023-02-08T13:50:46.945Z,103577.13
2023-02-08T13:53:15.421Z,103571.25
2023-02-08T13:55:55.634Z,103568.84
2023-02-08T13:58:48.256Z,103570.28
2023-02-08T14:01:15.043Z,103568.78
2023-02-08T14:03:41.826Z,103558.44
2023-02-08T14:06:23.538Z,103552.13
2023-02-08T14:09:15.493Z,103550.66
2023-02-08T14:11:54.111Z,103538.41
2023-02-08T14:14:26.158Z,103536.22
2023-02-08T14:17:04.831Z,103531.97
2023-02-08T14:19:34.120Z,103531.53
2023-02-08T14:22:20.353Z,103530.97
2023-02-08T14:24:50.160Z,103531.66
2023-02-08T14:27:26.816Z,103533.47
2023-02-08T14:30:03.190Z,103531.97
2023-02-08T14:32:32.586Z,103533.94
2023-02-08T14:35:01.159Z,103528.69
2023-02-08T14:37:31.053Z,103532.56
2023-02-08T14:40:24.849Z,103531.06
2023-02-08T14:43:36.767Z,103518.41
2023-02-08T14:46:37.228Z,103529.41
2023-02-08T14:49:17.519Z,103523.84
2023-02-08T14:52:07.008Z,103520.50
2023-02-08T14:54:46.459Z,103517.41
2023-02-08T14:57:35.310Z,103515.84
2023-02-08T15:00:08.310Z,103507.47
2023-02-08T15:02:41.143Z,103501.88
2023-02-08T15:05:21.345Z,103512.53
2023-02-08T15:07:52.897Z,103492.81
2023-02-08T15:10:21.333Z,103482.56
2023-02-08T15:12:52.134Z,103485.28
2023-02-08T15:15:26.161Z,103478.44
2023-02-08T15:17:54.880Z,103469.88
2023-02-08T15:20:25.689Z,103464.78
2023-02-08T15:23:26.074Z,103459.88
2023-02-08T15:26:05.081Z,103452.28
2023-02-08T15:28:36.132Z,103451.47
2023-02-08T15:31:06.695Z,103443.16
2023-02-08T15:33:34.065Z,103438.06
2023-02-08T15:36:06.543Z,103433.84
2023-02-08T15:38:36.249Z,103433.19
2023-02-08T15:41:23.395Z,103429.91
2023-02-08T15:43:50.472Z,103423.94
2023-02-08T15:46:23.584Z,103417.16
2023-02-08T15:48:50.606Z,103426.00
2023-02-08T15:51:20.062Z,103418.22
2023-02-08T15:53:49.163Z,103427.81
2023-02-08T15:56:35.944Z,103416.69
2023-02-08T15:59:05.397Z,103419.38
2023-02-08T16:01:32.289Z,103415.34
2023-02-08T16:04:02.944Z,103419.00
2023-02-08T16:06:34.370Z,103413.31
2023-02-08T16:09:03.640Z,103413.31
2023-02-08T16:11:36.066Z,103404.84
2023-02-08T16:14:04.766Z,103411.94
2023-02-08T16:16:39.028Z,103394.63
2023-02-08T16:19:25.964Z,103398.22
2023-02-08T16:21:55.044Z,103391.59
2023-02-08T16:24:24.483Z,103390.84
2023-02-08T16:27:00.152Z,103384.97
2023-02-08T16:29:29.775Z,103386.00
2023-02-08T16:32:01.242Z,103379.31
2023-02-08T16:34:28.447Z,103367.44
2023-02-08T16:36:55.407Z,103367.47
2023-02-08T16:39:46.888Z,103367.75
2023-02-08T16:42:28.421Z,103372.09
2023-02-08T16:45:12.631Z,103373.97
2023-02-08T16:47:40.380Z,103367.31
2023-02-08T16:50:08.468Z,103376.16
2023-02-08T16:52:35.145Z,103362.72
2023-02-08T16:55:01.725Z,103367.28
2023-02-08T16:57:41.192Z,103369.19
2023-02-08T17:00:19.753Z,103360.75
2023-02-08T17:02:46.205Z,103362.69
2023-02-08T17:05:12.967Z,103350.84
2023-02-08T17:07:39.640Z,103352.72
2023-02-08T17:10:08.252Z,103356.38
2023-02-08T17:12:34.705Z,103351.63
2023-02-08T17:15:01.062Z,103352.78
2023-02-08T17:17:27.974Z,103347.94
2023-02-08T17:19:54.409Z,103352.63
2023-02-08T17:22:20.823Z,103358.94
2023-02-08T17:24:47.247Z,103357.56
2023-02-08T17:27:14.212Z,103355.19
2023-02-08T17:29:40.771Z,103357.09
2023-02-08T17:32:07.441Z,103359.03
2023-02-08T17:34:33.849Z,103360.97
2023-02-08T17:37:00.266Z,103355.94
2023-02-08T17:39:26.607Z,103357.00
2023-02-08T17:41:52.972Z,103356.31
2023-02-08T17:44:20.586Z,103353.03
2023-02-08T17:46:48.031Z,103358.38
2023-02-08T17:49:16.120Z,103352.50
2023-02-08T17:51:42.534Z,103351.84
2023-02-08T17:54:11.156Z,103352.84
2023-02-08T17:56:37.662Z,103338.28
2023-02-08T17:59:05.224Z,103334.94
2023-02-08T18:01:32.192Z,103333.31
2023-02-08T18:03:59.323Z,103337.84
2023-02-08T18:06:25.822Z,103341.47
2023-02-08T18:08:53.597Z,103335.56
2023-02-08T18:11:20.965Z,103336.63
2023-02-08T18:13:49.283Z,103340.13
2023-02-08T18:16:21.727Z,103340.22
2023-02-08T18:18:48.290Z,103334.44
2023-02-08T18:21:17.914Z,103341.28
2023-02-08T18:23:45.018Z,103337.97
2023-02-08T18:26:14.418Z,103335.50
2023-02-08T18:28:40.901Z,103326.94
2023-02-08T18:31:11.471Z,103329.59
2023-02-08T18:33:38.285Z,103320.28
2023-02-08T18:36:11.308Z,103319.50
2023-02-08T18:38:45.467Z,103318.66
2023-02-08T18:41:24.426Z,103323.00
2023-02-08T18:43:53.207Z,103321.44
2023-02-08T18:46:20.987Z,103318.06
2023-02-08T18:48:48.493Z,103318.09
2023-02-08T18:51:18.693Z,103313.88
2023-02-08T18:53:48.273Z,103314.84
2023-02-08T18:56:15.097Z,103313.22
2023-02-08T18:58:42.476Z,103306.41
2023-02-08T19:01:15.459Z,103306.44
2023-02-08T19:03:43.069Z,103300.50
2023-02-08T19:06:14.929Z,103304.00
2023-02-08T19:08:43.462Z,103292.91
2023-02-08T19:11:15.989Z,103306.75
2023-02-08T19:13:42.407Z,103302.56
2023-02-08T19:16:08.900Z,103300.91
2023-02-08T19:18:35.468Z,103300.19
2023-02-08T19:21:06.461Z,103298.44
2023-02-08T19:23:33.154Z,103295.00
2023-02-08T19:26:20.950Z,103307.13
2023-02-08T19:28:47.448Z,103305.47
2023-02-08T19:31:17.307Z,103300.31
2023-02-08T19:33:46.244Z,103290.81
2023-02-08T19:36:14.138Z,103280.47
2023-02-08T19:38:41.592Z,103284.81
2023-02-08T19:41:10.226Z,103281.41
2023-02-08T19:43:36.947Z,103278.84
2023-02-08T19:46:12.317Z,103276.25
2023-02-08T19:48:39.205Z,103272.00
2023-02-08T19:51:05.916Z,103270.28
2023-02-08T19:53:33.128Z,103271.16
2023-02-08T19:56:01.185Z,103271.22
2023-02-08T19:58:28.716Z,103271.38
2023-02-08T20:00:55.895Z,103277.50
2023-02-08T20:03:23.474Z,103283.69
2023-02-08T20:05:50.760Z,103282.78
2023-02-08T20:08:18.101Z,103276.00
2023-02-08T20:10:49.209Z,103280.22
2023-02-08T20:13:15.776Z,103280.28
2023-02-08T20:15:44.204Z,103277.75
2023-02-08T20:18:14.362Z,103278.66
2023-02-08T20:20:41.927Z,103289.09
2023-02-08T20:23:20.864Z,103281.38
2023-02-08T20:25:49.150Z,103283.97
2023-02-08T20:28:15.668Z,103288.34
2023-02-08T20:30:42.230Z,103290.09
2023-02-08T20:33:08.780Z,103294.47
2023-02-08T20:35:36.434Z,103301.38
2023-02-08T20:38:02.908Z,103310.88
2023-02-08T20:40:29.355Z,103314.34
2023-02-08T20:42:55.797Z,103309.22
2023-02-08T20:45:22.394Z,103310.13
2023-02-08T20:47:48.852Z,103302.34
2023-02-08T20:50:19.047Z,103298.06
2023-02-08T20:52:46.720Z,103292.88
2023-02-08T20:55:13.158Z,103290.31
2023-02-08T20:57:39.661Z,103294.75
2023-02-08T21:00:06.712Z,103299.06
2023-02-08T21:02:33.280Z,103294.88
2023-02-08T21:04:59.791Z,103291.50
2023-02-08T21:07:26.122Z,103283.00
2023-02-08T21:09:52.723Z,103270.13
2023-02-08T21:12:19.147Z,103275.38
2023-02-08T21:14:45.622Z,103271.13
2023-02-08T21:17:12.289Z,103276.31
2023-02-08T21:19:39.565Z,103271.16
2023-02-08T21:22:06.217Z,103266.94
2023-02-08T21:24:32.670Z,103268.69
2023-02-08T21:26:59.537Z,103267.84
2023-02-08T21:29:26.201Z,103267.06
2023-02-08T21:31:54.321Z,103263.66
2023-02-08T21:34:21.256Z,103254.22
2023-02-08T21:36:47.918Z,103249.94
2023-02-08T21:39:14.521Z,103259.41
2023-02-08T21:41:40.860Z,103252.59
2023-02-08T21:44:09.260Z,103259.59
2023-02-08T21:46:36.220Z,103252.69
2023-02-08T21:49:21.795Z,103259.59
2023-02-08T21:52:06.582Z,103256.25
2023-02-08T21:54:52.251Z,103251.09
2023-02-08T21:57:24.776Z,103251.13
2023-02-08T21:59:56.731Z,103251.94
2023-02-08T22:02:25.995Z,103251.97
2023-02-08T22:04:55.283Z,103252.03
2023-02-08T22:07:22.849Z,103254.63
2023-02-08T22:09:49.413Z,103246.06
2023-02-08T22:12:18.477Z,103243.47
2023-02-08T22:14:44.933Z,103245.28
2023-02-08T22:17:11.340Z,103246.16
2023-02-08T22:19:41.798Z,103244.47
2023-02-08T22:22:09.035Z,103243.69
2023-02-08T22:24:36.161Z,103238.56
2023-02-08T22:27:03.133Z,103229.09
2023-02-08T22:29:29.607Z,103233.44
2023-02-08T22:31:56.113Z,103227.41
2023-02-08T22:34:22.614Z,103224.00
2023-02-08T22:36:48.996Z,103230.03
2023-02-08T22:39:15.506Z,103223.16
2023-02-08T22:41:41.870Z,103218.03
2023-02-08T22:44:08.311Z,103206.88
2023-02-08T22:46:34.754Z,103204.31
2023-02-08T22:49:01.226Z,103213.78
2023-02-08T22:51:27.602Z,103214.69
2023-02-08T22:53:55.913Z,103210.34
2023-02-08T22:56:22.283Z,103207.78
2023-02-08T22:58:48.698Z,103213.91
2023-02-08T23:01:17.345Z,103217.38
2023-02-08T23:03:44.227Z,103217.41
2023-02-08T23:06:14.260Z,103208.88
2023-02-08T23:08:40.888Z,103212.28
2023-02-08T23:11:07.844Z,103194.22
2023-02-08T23:13:35.067Z,103208.72
2023-02-08T23:16:01.620Z,103194.88
2023-02-08T23:18:28.056Z,103199.22
2023-02-08T23:20:54.697Z,103197.47
2023-02-08T23:23:21.177Z,103187.97
2023-02-08T23:25:47.851Z,103186.22
2023-02-08T23:28:14.432Z,103189.63
2023-02-08T23:30:42.785Z,103183.53
2023-02-08T23:33:09.385Z,103180.97
2023-02-08T23:35:40.553Z,103174.84
2023-02-08T23:38:07.816Z,103174.88
2023-02-08T23:40:34.370Z,103170.47
2023-02-08T23:43:00.736Z,103163.66
2023-02-08T23:45:27.122Z,103173.03
2023-02-08T23:47:53.474Z,103177.28
2023-02-08T23:50:19.987Z,103175.53
2023-02-08T23:52:46.409Z,103180.69
2023-02-08T23:55:12.812Z,103180.69
2023-02-08T23:57:39.735Z,103177.28
